createdAt,value
2022-11-20T00:02:58.507Z,1.10
2022-11-20T00:07:59.997Z,1.00
2022-11-20T00:13:01.609Z,0.80
2022-11-20T00:18:03.091Z,1.00
2022-11-20T00:23:04.636Z,0.60
2022-11-20T00:28:06.105Z,1.27
2022-11-20T00:33:07.637Z,0.65
2022-11-20T00:38:09.065Z,3.15
2022-11-20T00:43:10.545Z,1.30
2022-11-20T00:48:12.024Z,1.42
2022-11-20T00:53:13.446Z,1.25
2022-11-20T00:58:14.860Z,0.88
2022-11-20T01:03:18.288Z,1.40
2022-11-20T01:08:21.919Z,1.33
2022-11-20T01:13:38.328Z,0.95
2022-11-20T01:18:40.709Z,0.98
2022-11-20T01:23:45.301Z,1.27
2022-11-20T01:28:46.872Z,0.80
2022-11-20T01:33:49.714Z,0.80
2022-11-20T01:38:54.707Z,0.93
2022-11-20T01:43:56.119Z,0.98
2022-11-20T01:49:00.538Z,0.90
2022-11-20T01:54:03.847Z,0.93
2022-11-20T01:59:06.988Z,0.63
2022-11-20T02:04:09.395Z,1.25
2022-11-20T02:09:11.000Z,1.02
2022-11-20T02:14:12.565Z,0.98
2022-11-20T02:19:20.525Z,1.65
2022-11-20T02:24:23.021Z,1.42
2022-11-20T02:29:27.035Z,0.90
2022-11-20T02:34:28.595Z,0.82
2022-11-20T02:39:30.060Z,0.77
2022-11-20T02:44:31.525Z,0.90
2022-11-20T02:49:33.120Z,1.02
2022-11-20T02:54:34.502Z,0.90
2022-11-20T02:59:36.035Z,1.00
2022-11-20T03:04:37.529Z,1.00
2022-11-20T03:09:39.090Z,0.98
2022-11-20T03:14:40.604Z,0.47
2022-11-20T03:19:42.033Z,0.50
2022-11-20T03:24:43.524Z,0.65
2022-11-20T03:29:45.035Z,0.60
2022-11-20T03:34:46.473Z,0.60
2022-11-20T03:39:48.010Z,0.52
2022-11-20T03:44:49.445Z,0.65
2022-11-20T03:49:51.264Z,0.60
2022-11-20T03:54:52.776Z,0.77
2022-11-20T03:59:54.191Z,0.60
2022-11-20T04:04:55.636Z,0.70
2022-11-20T04:09:57.103Z,0.77
2022-11-20T04:14:58.568Z,0.88
2022-11-20T04:20:00.064Z,0.80
2022-11-20T04:25:01.528Z,0.68
2022-11-20T04:30:03.089Z,0.70
2022-11-20T04:35:04.660Z,0.60
2022-11-20T04:40:06.368Z,0.63
2022-11-20T04:45:07.939Z,0.70
2022-11-20T04:50:10.046Z,0.68
2022-11-20T04:55:11.520Z,0.70
2022-11-20T05:00:13.443Z,0.70
2022-11-20T05:05:14.980Z,0.80
2022-11-20T05:10:16.520Z,0.70
2022-11-20T05:15:17.963Z,0.82
2022-11-20T05:20:19.991Z,0.35
2022-11-20T05:25:21.476Z,0.35
2022-11-20T05:30:22.944Z,0.73
2022-11-20T05:35:24.370Z,0.50
2022-11-20T05:40:25.812Z,0.75
2022-11-20T05:45:27.287Z,0.60
2022-11-20T05:50:29.184Z,0.70
2022-11-20T05:55:30.608Z,0.73
2022-11-20T06:00:32.032Z,0.60
2022-11-20T06:05:34.453Z,0.68
2022-11-20T06:10:35.874Z,0.65
2022-11-20T06:15:37.287Z,0.80
2022-11-20T06:20:42.063Z,0.43
2022-11-20T06:25:44.105Z,0.45
2022-11-20T06:30:45.979Z,0.70
2022-11-20T06:35:47.413Z,0.70
2022-11-20T06:40:48.833Z,0.47
2022-11-20T06:45:52.974Z,0.65
2022-11-20T06:50:54.496Z,0.28
2022-11-20T06:55:57.300Z,0.82
2022-11-20T07:00:59.644Z,0.90
2022-11-20T07:06:02.091Z,0.50
2022-11-20T07:11:05.243Z,0.70
2022-11-20T07:16:08.024Z,0.43
2022-11-20T07:21:10.837Z,0.50
2022-11-20T07:26:12.456Z,0.57
2022-11-20T07:31:18.801Z,0.80
2022-11-20T07:36:20.952Z,0.45
2022-11-20T07:41:22.375Z,0.80
2022-11-20T07:46:24.143Z,0.60
2022-11-20T07:51:26.946Z,0.60
2022-11-20T07:56:29.605Z,0.70
2022-11-20T08:01:31.125Z,0.55
2022-11-20T08:06:32.876Z,0.50
2022-11-20T08:11:52.761Z,0.38
2022-11-20T08:16:54.204Z,0.73
2022-11-20T08:21:56.219Z,0.60
2022-11-20T08:27:00.625Z,0.57
2022-11-20T08:32:02.052Z,0.80
2022-11-20T08:37:03.840Z,0.45
2022-11-20T08:42:08.331Z,0.88
2022-11-20T08:47:09.918Z,0.57
2022-11-20T08:52:11.453Z,0.60
2022-11-20T08:57:12.931Z,0.77
2022-11-20T09:02:14.439Z,0.82
2022-11-20T09:07:15.915Z,1.00
2022-11-20T09:12:17.352Z,0.80
2022-11-20T09:17:19.216Z,0.63
2022-11-20T09:22:20.680Z,0.55
2022-11-20T09:27:22.643Z,0.60
2022-11-20T09:32:24.118Z,0.50
2022-11-20T09:37:25.523Z,0.40
2022-11-20T09:42:32.208Z,0.50
2022-11-20T09:47:33.717Z,0.52
2022-11-20T09:52:44.152Z,0.40
2022-11-20T09:57:46.899Z,1.10
2022-11-20T10:02:58.294Z,0.60
2022-11-20T10:08:02.565Z,0.60
2022-11-20T10:13:04.012Z,0.43
2022-11-20T10:18:23.939Z,0.52
2022-11-20T10:23:26.100Z,1.70
2022-11-20T10:28:48.219Z,0.70
2022-11-20T10:34:11.588Z,0.90
2022-11-20T10:39:32.245Z,1.08
2022-11-20T10:44:56.542Z,0.98
2022-11-20T10:50:02.377Z,0.95
2022-11-20T10:55:22.271Z,0.73
2022-11-20T11:00:23.819Z,0.53
2022-11-20T11:05:40.503Z,0.93
2022-11-20T11:10:42.419Z,0.88
2022-11-20T11:15:43.828Z,0.60
2022-11-20T11:20:51.067Z,0.70
2022-11-20T11:25:57.777Z,0.43
2022-11-20T11:30:59.188Z,0.77
2022-11-20T11:36:02.561Z,0.60
2022-11-20T11:41:05.312Z,1.10
2022-11-20T11:46:21.418Z,1.20
2022-11-20T11:51:23.314Z,1.23
2022-11-20T11:56:24.967Z,1.42
2022-11-20T12:01:45.219Z,1.15
2022-11-20T12:06:49.421Z,0.85
2022-11-20T12:11:53.797Z,0.90
2022-11-20T12:16:56.731Z,0.85
2022-11-20T12:22:36.617Z,0.60
2022-11-20T12:27:47.164Z,0.73
2022-11-20T12:32:51.343Z,0.55
2022-11-20T12:38:28.652Z,0.85
2022-11-20T12:43:50.487Z,0.38
2022-11-20T12:49:10.457Z,0.60
2022-11-20T12:54:30.000Z,0.50
2022-11-20T12:59:49.630Z,0.50
2022-11-20T13:05:06.112Z,0.60
2022-11-20T13:10:15.127Z,0.43
2022-11-20T13:15:26.325Z,0.32
2022-11-20T13:20:28.200Z,0.60
2022-11-20T13:25:30.759Z,0.50
2022-11-20T13:30:32.733Z,0.45
2022-11-20T13:35:57.427Z,0.80
2022-11-20T13:41:00.317Z,0.52
2022-11-20T13:46:06.488Z,0.73
2022-11-20T13:51:16.552Z,0.82
2022-11-20T13:56:20.760Z,0.57
2022-11-20T14:01:26.019Z,0.63
2022-11-20T14:06:28.318Z,0.80
2022-11-20T14:11:30.840Z,0.68
2022-11-20T14:16:33.735Z,1.08
2022-11-20T14:21:35.208Z,0.73
2022-11-20T14:26:37.483Z,0.70
2022-11-20T14:31:39.261Z,0.95
2022-11-20T14:36:40.839Z,1.00
2022-11-20T14:41:51.186Z,0.70
2022-11-20T14:46:53.559Z,0.90
2022-11-20T14:52:12.007Z,0.80
2022-11-20T14:57:25.775Z,0.70
2022-11-20T15:02:27.197Z,0.82
2022-11-20T15:07:33.143Z,0.80
2022-11-20T15:12:35.881Z,0.82
2022-11-20T15:17:38.145Z,0.90
2022-11-20T15:22:39.577Z,1.00
2022-11-20T15:27:41.348Z,0.85
2022-11-20T15:32:43.214Z,0.75
2022-11-20T15:37:44.648Z,0.88
2022-11-20T15:43:06.771Z,1.13
2022-11-20T15:48:30.197Z,0.80
2022-11-20T15:53:31.701Z,1.25
2022-11-20T15:58:33.223Z,1.20
2022-11-20T16:03:34.668Z,2.28
2022-11-20T16:08:36.167Z,1.92
2022-11-20T16:13:56.133Z,1.23
2022-11-20T16:18:58.061Z,1.00
2022-11-20T16:24:00.922Z,1.00
2022-11-20T16:29:03.662Z,1.13
2022-11-20T16:34:11.835Z,1.20
2022-11-20T16:39:15.835Z,0.90
2022-11-20T16:44:21.418Z,1.05
2022-11-20T16:49:23.331Z,1.10
2022-11-20T16:54:25.094Z,1.27
2022-11-20T16:59:26.576Z,0.93
2022-11-20T17:04:27.976Z,1.40
2022-11-20T17:09:29.627Z,1.13
2022-11-20T17:14:31.127Z,0.88
2022-11-20T17:19:32.586Z,0.88
2022-11-20T17:24:34.627Z,0.98
2022-11-20T17:29:41.783Z,1.10
2022-11-20T17:34:43.564Z,0.57
2022-11-20T17:39:45.351Z,1.20
2022-11-20T17:44:47.476Z,1.02
2022-11-20T17:49:49.072Z,1.17
2022-11-20T17:54:52.667Z,1.30
2022-11-20T17:59:54.143Z,0.80
2022-11-20T18:04:55.642Z,0.85
2022-11-20T18:09:57.057Z,0.60
2022-11-20T18:14:58.500Z,0.90
2022-11-20T18:25:21.456Z,0.63
2022-11-20T18:30:22.915Z,0.73
2022-11-20T18:35:24.380Z,0.80
2022-11-20T18:40:25.804Z,0.63
2022-11-20T18:45:27.279Z,0.90
2022-11-20T18:50:28.851Z,1.15
2022-11-20T18:55:30.279Z,0.95
2022-11-20T19:00:31.696Z,1.13
2022-11-20T19:05:36.128Z,0.98
2022-11-20T19:10:37.732Z,1.00
2022-11-20T19:15:39.248Z,2.00
2022-11-20T19:20:40.667Z,2.78
2022-11-20T19:25:42.110Z,2.85
2022-11-20T19:30:43.584Z,1.83
2022-11-20T19:35:45.061Z,1.20
2022-11-20T19:40:46.693Z,1.13
2022-11-20T19:45:48.386Z,1.25
2022-11-20T19:50:50.147Z,1.00
2022-11-20T19:55:58.618Z,0.90
2022-11-20T20:01:10.098Z,0.77
2022-11-20T20:06:14.158Z,0.52
2022-11-20T20:11:19.957Z,0.57
2022-11-20T20:16:23.305Z,0.50
2022-11-20T20:21:25.176Z,0.57
2022-11-20T20:26:27.698Z,0.40
2022-11-20T20:31:29.865Z,0.57
2022-11-20T20:36:31.317Z,0.77
2022-11-20T20:41:32.790Z,0.30
2022-11-20T20:46:34.496Z,0.50
2022-11-20T20:51:36.300Z,0.80
2022-11-20T20:56:37.752Z,0.77
2022-11-20T21:01:39.302Z,0.88
2022-11-20T21:06:40.785Z,0.63
2022-11-20T21:11:42.225Z,0.38
2022-11-20T21:16:44.110Z,0.70
2022-11-20T21:22:00.590Z,0.30
2022-11-20T21:27:04.287Z,0.50
2022-11-20T21:32:05.752Z,0.55
2022-11-20T21:37:07.169Z,0.60
2022-11-20T21:42:08.699Z,0.50
2022-11-20T21:47:10.163Z,0.57
2022-11-20T21:52:12.261Z,0.70
2022-11-20T21:57:13.781Z,0.80
2022-11-20T22:02:15.242Z,0.50
2022-11-20T22:07:16.754Z,0.47
2022-11-20T22:12:18.240Z,0.20
2022-11-20T22:17:39.616Z,0.80
2022-11-20T22:22:41.204Z,0.50
2022-11-20T22:27:42.665Z,0.60
2022-11-20T22:32:44.089Z,0.40
2022-11-20T22:37:45.581Z,0.30
2022-11-20T22:42:47.170Z,0.47
2022-11-20T22:47:48.900Z,0.20
2022-11-20T22:52:50.396Z,0.30
2022-11-20T22:57:51.815Z,0.30
2022-11-20T23:02:53.231Z,0.40
2022-11-20T23:07:54.687Z,0.40
2022-11-20T23:12:56.136Z,0.20
2022-11-20T23:17:57.611Z,0.30
2022-11-20T23:22:59.109Z,0.17
2022-11-20T23:28:00.697Z,0.30
2022-11-20T23:33:02.319Z,0.20
2022-11-20T23:38:03.807Z,0.50
2022-11-20T23:43:17.463Z,0.52
2022-11-20T23:48:20.203Z,0.40
2022-11-20T23:53:25.038Z,0.75
2022-11-20T23:58:30.221Z,0.55
